Time,TemperatureF,DewpointF,PressureIn,WindDirection,WindDirectionDegrees,WindSpeedMPH,WindSpeedGustMPH,Humidity,HourlyPrecipIn,Conditions,Clouds,dailyrainin,SoftwareType,DateUTC
2013-03-11 00:09:00,48.1,37.0,30.25,SW,232,6.0,-999.0,66,-99.99,,,0.00,weatherlink.com 1.10,2013-03-11 04:09:00,
2013-03-11 00:24:00,47.8,37.0,30.24,NNE,31,1.0,-999.0,66,-99.99,,,0.00,weatherlink.com 1.10,2013-03-11 04:24:00,
2013-03-11 00:39:00,47.5,37.0,30.24,NW,317,4.0,-999.0,68,-99.99,,,0.00,weatherlink.com 1.10,2013-03-11 04:39:00,
2013-03-11 00:55:00,47.1,39.0,30.24,NNW,336,4.0,-999.0,73,-99.99,,,0.00,weatherlink.com 1.10,2013-03-11 04:55:00,
2013-03-11 01:09:00,46.8,40.0,30.23,WSW,244,1.0,-999.0,77,-99.99,,,0.00,weatherlink.com 1.10,2013-03-11 05:09:00,
2013-03-11 01:25:00,46.3,40.0,30.23,NNW,330,3.0,-999.0,80,-99.99,,,0.00,weatherlink.com 1.10,2013-03-11 05:25:00,
2013-03-11 01:39:00,46.1,41.0,30.23,NNW,338,2.0,-999.0,83,-99.99,,,0.00,weatherlink.com 1.10,2013-03-11 05:39:00,
2013-03-11 01:54:00,45.6,42.0,30.23,SE,144,6.0,-999.0,86,-99.99,,,0.00,weatherlink.com 1.10,2013-03-11 05:54:00,
2013-03-11 02:09:00,45.2,42.0,30.24,South,180,6.0,-999.0,89,-99.99,,,0.00,weatherlink.com 1.10,2013-03-11 06:09:00,
2013-03-11 02:24:00,45.2,43.0,30.23,East,90,5.0,-999.0,91,-99.99,,,0.00,weatherlink.com 1.10,2013-03-11 06:24:00,
2013-03-11 02:39:00,45.0,43.0,30.21,SW,219,1.0,-999.0,93,-99.99,,,0.00,weatherlink.com 1.10,2013-03-11 06:39:00,
2013-03-11 03:09:00,44.7,43.0,30.20,SW,226,4.0,-999.0,95,-99.99,,,0.00,weatherlink.com 1.10,2013-03-11 07:09:00,
2013-03-11 03:24:00,44.6,44.0,30.21,SW,232,0.0,-999.0,96,-99.99,,,0.00,weatherlink.com 1.10,2013-03-11 07:24:00,
2013-03-11 03:40:00,44.3,43.0,30.21,SW,227,1.0,-999.0,96,-99.99,,,0.00,weatherlink.com 1.10,2013-03-11 07:40:00,
2013-03-11 03:55:00,44.2,43.0,30.20,WSW,246,1.0,-999.0,96,-99.99,,,0.00,weatherlink.com 1.10,2013-03-11 07:55:00,
2013-03-11 04:10:00,44.2,43.0,30.18,NW,321,2.0,-999.0,97,-99.99,,,0.00,weatherlink.com 1.10,2013-03-11 08:10:00,
2013-03-11 04:25:00,44.2,43.0,30.18,East,81,3.0,-999.0,97,-99.99,,,0.00,weatherlink.com 1.10,2013-03-11 08:25:00,
2013-03-11 04:39:00,44.1,43.0,30.16,NE,51,1.0,-999.0,97,-99.99,,,0.00,weatherlink.com 1.10,2013-03-11 08:39:00,
2013-03-11 04:54:00,44.1,43.0,30.16,NNE,26,1.0,-999.0,97,-99.99,,,0.00,weatherlink.com 1.10,2013-03-11 08:54:00,
2013-03-11 05:09:00,43.9,43.0,30.16,East,91,2.0,-999.0,97,-99.99,,,0.00,weatherlink.com 1.10,2013-03-11 09:09:00,
2013-03-11 05:24:00,43.8,43.0,30.14,SSW,200,2.0,-999.0,97,-99.99,,,0.00,weatherlink.com 1.10,2013-03-11 09:24:00,
2013-03-11 05:39:00,43.6,43.0,30.14,SSW,207,2.0,-999.0,97,-99.99,,,0.00,weatherlink.com 1.10,2013-03-11 09:39:00,
2013-03-11 05:54:00,43.7,43.0,30.14,South,187,0.0,-999.0,97,-99.99,,,0.00,weatherlink.com 1.10,2013-03-11 09:54:00,
2013-03-11 06:10:00,43.7,43.0,30.14,WSW,241,4.0,-999.0,98,-99.99,,,0.00,weatherlink.com 1.10,2013-03-11 10:10:00,
2013-03-11 06:25:00,43.4,43.0,30.14,SSW,204,2.0,-999.0,98,-99.99,,,0.00,weatherlink.com 1.10,2013-03-11 10:25:00,
2013-03-11 06:40:00,43.2,43.0,30.15,East,94,0.0,-999.0,98,-99.99,,,0.00,weatherlink.com 1.10,2013-03-11 10:40:00,
2013-03-11 06:55:00,43.1,43.0,30.15,SSW,197,1.0,-999.0,98,-99.99,,,0.00,weatherlink.com 1.10,2013-03-11 10:55:00,
2013-03-11 07:24:00,43.5,43.0,30.16,SSE,157,1.0,-999.0,98,-99.99,,,0.00,weatherlink.com 1.10,2013-03-11 11:24:00,
2013-03-11 07:39:00,43.5,43.0,30.15,SSW,211,4.0,-999.0,98,-99.99,,,0.00,weatherlink.com 1.10,2013-03-11 11:39:00,
2013-03-11 07:54:00,43.5,43.0,30.16,SSW,204,7.0,-999.0,98,-99.99,,,0.00,weatherlink.com 1.10,2013-03-11 11:54:00,
2013-03-11 08:09:00,43.3,43.0,30.16,SSW,203,3.0,-999.0,98,-99.99,,,0.00,weatherlink.com 1.10,2013-03-11 12:09:00,
2013-03-11 08:24:00,43.8,43.0,30.15,South,186,0.0,-999.0,98,-99.99,,,0.00,weatherlink.com 1.10,2013-03-11 12:24:00,
2013-03-11 08:39:00,43.6,43.0,30.14,SE,127,2.0,-999.0,98,-99.99,,,0.00,weatherlink.com 1.10,2013-03-11 12:39:00,
2013-03-11 08:54:00,43.8,43.0,30.14,SW,217,2.0,-999.0,98,-99.99,,,0.00,weatherlink.com 1.10,2013-03-11 12:54:00,
2013-03-11 09:09:00,43.8,43.0,30.14,NE,51,2.0,-999.0,98,-99.99,,,0.00,weatherlink.com 1.10,2013-03-11 13:09:00,
2013-03-11 09:24:00,43.6,43.0,30.14,East,88,3.0,-999.0,98,-99.99,,,0.00,weatherlink.com 1.10,2013-03-11 13:24:00,
2013-03-11 09:40:00,43.3,43.0,30.13,SSW,206,3.0,-999.0,98,-99.99,,,0.00,weatherlink.com 1.10,2013-03-11 13:40:00,
2013-03-11 09:55:00,43.6,43.0,30.13,SSE,162,1.0,-999.0,98,-99.99,,,0.00,weatherlink.com 1.10,2013-03-11 13:55:00,
2013-03-11 10:10:00,43.6,43.0,30.13,ESE,119,1.0,-999.0,98,-99.99,,,0.00,weatherlink.com 1.10,2013-03-11 14:10:00,
2013-03-11 10:24:00,43.6,43.0,30.13,South,190,1.0,-999.0,98,-99.99,,,0.00,weatherlink.com 1.10,2013-03-11 14:24:00,
2013-03-11 10:39:00,43.7,43.0,30.12,SE,124,4.0,-999.0,98,-99.99,,,0.00,weatherlink.com 1.10,2013-03-11 14:39:00,
2013-03-11 10:54:00,43.9,43.0,30.12,SW,224,0.0,-999.0,98,-99.99,,,0.00,weatherlink.com 1.10,2013-03-11 14:54:00,
2013-03-11 11:09:00,43.9,43.0,30.11,WSW,249,9.0,-999.0,98,-99.99,,,0.00,weatherlink.com 1.10,2013-03-11 15:09:00,
2013-03-11 11:24:00,44.2,44.0,30.11,SSW,196,2.0,-999.0,98,-99.99,,,0.00,weatherlink.com 1.10,2013-03-11 15:24:00,
2013-03-11 11:40:00,44.3,44.0,30.10,SW,229,2.0,-999.0,99,-99.99,,,0.00,weatherlink.com 1.10,2013-03-11 15:40:00,
2013-03-11 11:55:00,44.2,44.0,30.09,SSW,205,3.0,-999.0,98,-99.99,,,0.00,weatherlink.com 1.10,2013-03-11 15:55:00,
2013-03-11 12:09:00,44.3,44.0,30.09,SSW,205,2.0,-999.0,99,-99.99,,,0.00,weatherlink.com 1.10,2013-03-11 16:09:00,
2013-03-11 12:25:00,44.3,44.0,30.10,West,261,2.0,-999.0,99,-99.99,,,0.00,weatherlink.com 1.10,2013-03-11 16:25:00,
2013-03-11 12:40:00,44.4,44.0,30.10,SSW,200,4.0,-999.0,99,-99.99,,,0.00,weatherlink.com 1.10,2013-03-11 16:40:00,
2013-03-11 12:55:00,44.7,44.0,30.09,ENE,63,0.0,-999.0,98,-99.99,,,0.00,weatherlink.com 1.10,2013-03-11 16:55:00,
2013-03-11 13:10:00,44.7,44.0,30.09,South,177,4.0,-999.0,98,-99.99,,,0.00,weatherlink.com 1.10,2013-03-11 17:10:00,
2013-03-11 13:25:00,44.9,44.0,30.08,NNW,337,1.0,-999.0,98,-99.99,,,0.00,weatherlink.com 1.10,2013-03-11 17:25:00,
2013-03-11 13:40:00,45.0,45.0,30.06,SSE,150,1.0,-999.0,99,-99.99,,,0.00,weatherlink.com 1.10,2013-03-11 17:40:00,
2013-03-11 13:54:00,45.2,45.0,30.04,SSE,160,0.0,-999.0,99,-99.99,,,0.00,weatherlink.com 1.10,2013-03-11 17:54:00,
2013-03-11 14:10:00,45.5,45.0,30.04,SE,134,4.0,-999.0,99,-99.99,,,0.00,weatherlink.com 1.10,2013-03-11 18:10:00,
2013-03-11 14:25:00,45.8,46.0,30.02,ENE,78,3.0,-999.0,99,-99.99,,,0.00,weatherlink.com 1.10,2013-03-11 18:25:00,
2013-03-11 14:40:00,46.1,46.0,30.01,SSE,168,5.0,-999.0,99,-99.99,,,0.00,weatherlink.com 1.10,2013-03-11 18:40:00,
2013-03-11 14:55:00,46.5,46.0,30.01,ENE,60,2.0,-999.0,99,-99.99,,,0.00,weatherlink.com 1.10,2013-03-11 18:55:00,
2013-03-11 15:10:00,46.6,46.0,30.01,SSW,192,1.0,-999.0,99,-99.99,,,0.00,weatherlink.com 1.10,2013-03-11 19:10:00,
2013-03-11 15:25:00,47.0,47.0,30.00,East,98,4.0,-999.0,99,-99.99,,,0.00,weatherlink.com 1.10,2013-03-11 19:25:00,
2013-03-11 15:40:00,47.2,47.0,29.97,SE,132,7.0,-999.0,99,-99.99,,,0.00,weatherlink.com 1.10,2013-03-11 19:40:00,
2013-03-11 15:55:00,47.4,47.0,29.98,ENE,76,3.0,-999.0,99,-99.99,,,0.00,weatherlink.com 1.10,2013-03-11 19:55:00,
2013-03-11 16:10:00,47.5,47.0,29.98,SSW,211,10.0,-999.0,99,-99.99,,,0.00,weatherlink.com 1.10,2013-03-11 20:10:00,
2013-03-11 16:25:00,47.4,47.0,29.97,NE,37,0.0,-999.0,99,-99.99,,,0.00,weatherlink.com 1.10,2013-03-11 20:25:00,
2013-03-11 16:40:00,47.5,47.0,29.97,SSE,154,2.0,-999.0,99,-99.99,,,0.00,weatherlink.com 1.10,2013-03-11 20:40:00,
2013-03-11 16:54:00,47.7,48.0,29.96,SW,219,2.0,-999.0,99,-99.99,,,0.00,weatherlink.com 1.10,2013-03-11 20:54:00,
2013-03-11 17:09:00,47.8,48.0,29.95,WSW,246,5.0,-999.0,99,-99.99,,,0.00,weatherlink.com 1.10,2013-03-11 21:09:00,
2013-03-11 17:24:00,47.9,48.0,29.95,SSW,202,0.0,-999.0,99,-99.99,,,0.00,weatherlink.com 1.10,2013-03-11 21:24:00,
2013-03-11 17:39:00,48.0,48.0,29.96,ENE,72,2.0,-999.0,99,-99.99,,,0.00,weatherlink.com 1.10,2013-03-11 21:39:00,
2013-03-11 17:54:00,48.2,48.0,29.96,NE,35,2.0,-999.0,99,-99.99,,,0.00,weatherlink.com 1.10,2013-03-11 21:54:00,
2013-03-11 18:10:00,48.2,48.0,29.95,West,264,4.0,-999.0,99,-99.99,,,0.00,weatherlink.com 1.10,2013-03-11 22:10:00,
2013-03-11 18:25:00,48.3,48.0,29.96,SW,218,1.0,-999.0,99,-99.99,,,0.00,weatherlink.com 1.10,2013-03-11 22:25:00,
2013-03-11 18:40:00,48.4,48.0,29.98,South,188,3.0,-999.0,99,-99.99,,,0.00,weatherlink.com 1.10,2013-03-11 22:40:00,
2013-03-11 18:55:00,47.9,48.0,30.00,SSW,202,0.0,-999.0,99,-99.99,,,0.00,weatherlink.com 1.10,2013-03-11 22:55:00,
2013-03-11 19:10:00,47.4,47.0,30.00,SSW,203,0.0,-999.0,99,-99.99,,,0.00,weatherlink.com 1.10,2013-03-11 23:10:00,
2013-03-11 19:25:00,47.1,47.0,30.00,SSW,203,1.0,-999.0,99,-99.99,,,0.00,weatherlink.com 1.10,2013-03-11 23:25:00,
2013-03-11 19:40:00,47.0,47.0,30.01,SSW,203,0.0,-999.0,99,-99.99,,,0.00,weatherlink.com 1.10,2013-03-11 23:40:00,
2013-03-11 19:55:00,46.9,47.0,30.01,SSW,207,0.0,-999.0,99,-99.99,,,0.00,weatherlink.com 1.10,2013-03-11 23:55:00,
2013-03-11 20:10:00,47.1,47.0,30.00,SSW,195,0.0,-999.0,99,-99.99,,,0.00,weatherlink.com 1.10,2013-03-12 00:10:00,
2013-03-11 20:25:00,47.2,47.0,29.99,SW,234,0.0,-999.0,99,-99.99,,,0.00,weatherlink.com 1.10,2013-03-12 00:25:00,
2013-03-11 20:40:00,46.8,47.0,29.99,SW,215,0.0,-999.0,99,-99.99,,,0.00,weatherlink.com 1.10,2013-03-12 00:40:00,
2013-03-11 20:55:00,46.7,47.0,29.97,South,178,2.0,-999.0,99,-99.99,,,0.00,weatherlink.com 1.10,2013-03-12 00:55:00,
2013-03-11 21:10:00,47.1,47.0,29.98,WSW,238,0.0,-999.0,99,-99.99,,,0.00,weatherlink.com 1.10,2013-03-12 01:10:00,
2013-03-11 21:25:00,47.5,47.0,29.97,SW,219,1.0,-999.0,98,-99.99,,,0.00,weatherlink.com 1.10,2013-03-12 01:25:00,
2013-03-11 21:40:00,47.8,47.0,29.97,SSW,202,2.0,-999.0,97,-99.99,,,0.00,weatherlink.com 1.10,2013-03-12 01:40:00,
2013-03-11 21:55:00,47.8,47.0,29.96,SW,231,2.0,-999.0,97,-99.99,,,0.00,weatherlink.com 1.10,2013-03-12 01:55:00,
2013-03-11 22:10:00,48.5,48.0,29.95,SSE,156,1.0,-999.0,97,-99.99,,,0.00,weatherlink.com 1.10,2013-03-12 02:10:00,
2013-03-11 22:25:00,49.0,49.0,29.95,WSW,258,0.0,-999.0,98,-99.99,,,0.00,weatherlink.com 1.10,2013-03-12 02:25:00,
2013-03-11 22:40:00,49.0,49.0,29.94,SSE,147,0.0,-999.0,98,-99.99,,,0.00,weatherlink.com 1.10,2013-03-12 02:40:00,
2013-03-11 22:55:00,49.1,49.0,29.94,SSW,205,2.0,-999.0,98,-99.99,,,0.00,weatherlink.com 1.10,2013-03-12 02:55:00,
2013-03-11 23:10:00,49.1,49.0,29.93,NNE,15,0.0,-999.0,98,-99.99,,,0.00,weatherlink.com 1.10,2013-03-12 03:10:00,
2013-03-11 23:25:00,49.0,49.0,29.94,SW,215,0.0,-999.0,98,-99.99,,,0.00,weatherlink.com 1.10,2013-03-12 03:25:00,
2013-03-11 23:40:00,48.8,48.0,29.93,SW,215,1.0,-999.0,98,-99.99,,,0.00,weatherlink.com 1.10,2013-03-12 03:40:00,
2013-03-11 23:55:00,49.0,49.0,29.93,SSE,148,0.0,-999.0,98,-99.99,,,0.00,weatherlink.com 1.10,2013-03-12 03:55:00,